Time;durP1;ratioP1;P1;durP2;ratioP2;P2;SDS_P1;SDS_P2;PMS_P1;PMS_P2;Temp;Humidity;BMP_temperature;BMP_pressure;BME280_temperature;BME280_humidity;BME280_pressure;Samples;Min_cycle;Max_cycle;Signal;HPM_P1;HPM_P2
2022/01/03 00:02:24;;;;;;;32.05;6.05;;;10.00;97.20;;;;;;5045625;28;20103;-61
2022/01/03 00:04:51;;;;;;;21.67;4.38;;;10.00;97.20;;;;;;5047251;28;20484;-60
2022/01/03 00:07:18;;;;;;;22.60;3.92;;;9.90;97.20;;;;;;5045588;28;20056;-62
2022/01/03 00:09:45;;;;;;;29.65;3.72;;;9.90;97.20;;;;;;5047057;28;20045;-61
2022/01/03 00:12:12;;;;;;;21.15;3.97;;;9.90;97.20;;;;;;5046914;28;20053;-60
2022/01/03 00:14:40;;;;;;;14.10;3.95;;;9.90;97.20;;;;;;5044929;28;20049;-60
2022/01/03 00:17:06;;;;;;;19.35;3.75;;;9.90;97.30;;;;;;5047630;28;20061;-61
2022/01/03 00:19:33;;;;;;;21.67;4.47;;;9.90;97.40;;;;;;5046385;28;20132;-60
2022/01/03 00:22:04;;;;;;;18.23;4.60;;;9.80;97.30;;;;;;5047000;28;20084;-61
2022/01/03 00:24:35;;;;;;;18.23;3.78;;;9.80;97.40;;;;;;5022369;28;20088;-61
2022/01/03 00:27:08;;;;;;;22.38;4.68;;;9.80;97.40;;;;;;5027021;28;20064;-60
2022/01/03 00:29:42;;;;;;;29.90;4.18;;;9.80;97.50;;;;;;5042423;28;20080;-60
2022/01/03 00:32:09;;;;;;;31.58;4.32;;;9.70;97.50;;;;;;5029748;28;20083;-60
2022/01/03 00:34:36;;;;;;;18.20;3.28;;;9.70;97.60;;;;;;5049189;28;20048;-60
2022/01/03 00:37:08;;;;;;;21.23;3.92;;;9.70;97.70;;;;;;5048285;28;20053;-60
2022/01/03 00:39:35;;;;;;;26.50;5.70;;;9.70;97.90;;;;;;5049100;28;20049;-60
2022/01/03 00:42:02;;;;;;;23.20;4.30;;;9.70;97.90;;;;;;5048044;28;20045;-64
2022/01/03 00:44:29;;;;;;;24.70;3.88;;;9.60;98.00;;;;;;5046669;28;20049;-60
2022/01/03 00:46:58;;;;;;;28.13;4.88;;;9.60;98.10;;;;;;5046874;28;20140;-60
2022/01/03 00:49:25;;;;;;;27.70;4.05;;;9.60;98.20;;;;;;5047375;28;20091;-62
2022/01/03 00:51:51;;;;;;;30.52;4.05;;;9.60;98.30;;;;;;5046385;28;20487;-61
2022/01/03 00:54:18;;;;;;;17.63;3.17;;;9.60;98.30;;;;;;5047227;28;20045;-61
2022/01/03 00:56:47;;;;;;;23.98;4.20;;;9.60;98.40;;;;;;5046847;28;20135;-62
2022/01/03 00:59:29;;;;;;;34.35;4.30;;;9.50;98.60;;;;;;5046698;28;20049;-61
2022/01/03 01:01:55;;;;;;;25.90;4.75;;;9.50;98.80;;;;;;5030208;28;20119;-62
2022/01/03 01:04:23;;;;;;;35.25;4.13;;;9.50;98.60;;;;;;5028705;28;20042;-61
2022/01/03 01:06:54;;;;;;;34.42;6.90;;;9.50;98.60;;;;;;5048598;28;20103;-61
2022/01/03 01:09:23;;;;;;;36.85;4.20;;;9.50;99.00;;;;;;5049367;28;20044;-61
2022/01/03 01:11:52;;;;;;;24.42;3.75;;;9.50;98.70;;;;;;5049579;28;20072;-60
2022/01/03 01:14:19;;;;;;;27.83;4.53;;;9.50;98.80;;;;;;5049651;28;20049;-61
2022/01/03 01:16:45;;;;;;;24.58;5.50;;;9.50;98.90;;;;;;5050369;28;20135;-60
2022/01/03 01:19:12;;;;;;;33.50;5.85;;;9.50;99.50;;;;;;5049325;28;20110;-61
2022/01/03 01:21:39;;;;;;;36.70;7.20;;;9.50;99.00;;;;;;5030776;28;20081;-61
2022/01/03 01:24:06;;;;;;;40.03;7.32;;;9.50;99.10;;;;;;5049037;28;20090;-61
2022/01/03 01:29:39;;;;;;;20.13;4.30;;;9.50;99.40;;;;;;5066021;28;20060;-61
2022/01/03 01:32:07;;;;;;;32.40;5.72;;;9.50;99.10;;;;;;5085274;28;20052;-59
2022/01/03 01:34:35;;;;;;;19.52;4.00;;;9.50;99.10;;;;;;5067096;28;20049;-60
2022/01/03 01:37:02;;;;;;;25.58;4.15;;;9.60;99.20;;;;;;5047426;28;20099;-61
2022/01/03 01:39:29;;;;;;;33.28;3.90;;;9.60;99.10;;;;;;5048734;28;20183;-61
2022/01/03 01:42:01;;;;;;;21.90;3.88;;;9.70;99.10;;;;;;5048076;28;20130;-61
2022/01/03 01:44:29;;;;;;;25.75;4.93;;;9.60;99.10;;;;;;5048589;28;20052;-61
2022/01/03 01:46:57;;;;;;;21.35;4.13;;;9.70;99.00;;;;;;5047189;28;20049;-61
2022/01/03 01:49:25;;;;;;;32.83;5.05;;;9.70;98.90;;;;;;5047082;28;20058;-61
2022/01/03 01:52:00;;;;;;;26.48;3.63;;;9.70;98.90;;;;;;5047754;28;20649;-62
2022/01/03 01:54:32;;;;;;;24.80;4.57;;;9.70;98.80;;;;;;5048206;28;20099;-61
2022/01/03 01:57:06;;;;;;;31.35;6.60;;;9.80;98.70;;;;;;5047261;28;20053;-61
2022/01/03 02:00:04;;;;;;;16.60;3.35;;;9.90;98.60;;;;;;5048480;28;20113;-60
2022/01/03 02:02:38;;;;;;;23.15;4.80;;;9.90;98.40;;;;;;5047476;28;20053;-61
2022/01/03 02:05:30;;;;;;;32.88;4.90;;;9.90;98.50;;;;;;5047449;28;20045;-61
2022/01/03 02:08:29;;;;;;;30.92;5.60;;;10.00;98.50;;;;;;5047962;28;20052;-61
2022/01/03 02:11:02;;;;;;;22.50;3.90;;;9.90;98.20;;;;;;5045455;28;20784;-62
2022/01/03 02:13:29;;;;;;;19.63;5.50;;;10.00;98.40;;;;;;5048272;28;20045;-61
2022/01/03 02:15:59;;;;;;;24.90;4.07;;;9.90;98.30;;;;;;5030771;28;20052;-61
2022/01/03 02:18:26;;;;;;;26.83;4.10;;;9.90;98.30;;;;;;5047974;28;20626;-62
2022/01/03 02:20:53;;;;;;;25.95;4.03;;;9.90;98.30;;;;;;5048375;28;20045;-60
2022/01/03 02:23:20;;;;;;;20.80;3.25;;;9.90;98.30;;;;;;5046552;28;20095;-60
2022/01/03 02:25:47;;;;;;;33.25;5.95;;;9.90;98.40;;;;;;5048167;28;20080;-61
2022/01/03 02:28:16;;;;;;;19.98;3.80;;;9.90;98.30;;;;;;5046224;28;20076;-59
2022/01/03 02:30:43;;;;;;;27.92;5.07;;;9.90;98.30;;;;;;5061093;28;20134;-60
2022/01/03 02:33:09;;;;;;;27.25;3.55;;;9.80;98.10;;;;;;5050175;28;20107;-60
2022/01/03 02:35:38;;;;;;;30.05;4.93;;;9.80;98.20;;;;;;5047367;28;20109;-61
2022/01/03 02:38:05;;;;;;;27.10;4.65;;;9.80;98.20;;;;;;5046925;28;20049;-60
2022/01/03 02:40:32;;;;;;;30.38;4.65;;;9.80;98.20;;;;;;5047488;28;20122;-60
2022/01/03 02:42:59;;;;;;;21.02;3.80;;;9.80;98.20;;;;;;5047205;28;20084;-59
2022/01/03 02:45:26;;;;;;;28.63;5.38;;;9.80;98.20;;;;;;5047806;28;20099;-59
2022/01/03 02:48:00;;;;;;;26.10;3.95;;;9.70;98.20;;;;;;5047480;28;20068;-59
2022/01/03 02:50:29;;;;;;;17.42;2.97;;;9.70;98.20;;;;;;5036990;28;20081;-60
2022/01/03 02:52:55;;;;;;;19.48;4.63;;;9.70;98.20;;;;;;5046805;28;20087;-61
2022/01/03 02:55:23;;;;;;;24.08;5.05;;;9.70;98.20;;;;;;5047392;28;20453;-59
2022/01/03 02:57:51;;;;;;;22.48;3.22;;;9.70;98.10;;;;;;5047216;28;20049;-60
2022/01/03 03:00:27;;;;;;;33.38;4.78;;;9.70;98.10;;;;;;5042333;28;20053;-60
2022/01/03 03:02:54;;;;;;;22.83;3.58;;;9.70;98.10;;;;;;5047629;28;20052;-59
2022/01/03 03:05:21;;;;;;;21.30;3.67;;;9.70;97.90;;;;;;5050014;28;20079;-59
2022/01/03 03:07:48;;;;;;;21.20;3.28;;;9.70;97.90;;;;;;5051391;28;20053;-59
2022/01/03 03:10:17;;;;;;;20.42;3.60;;;9.70;97.90;;;;;;5049687;28;20049;-59
2022/01/03 03:12:44;;;;;;;17.77;3.63;;;9.70;97.90;;;;;;5051096;28;20045;-59
2022/01/03 03:15:11;;;;;;;14.82;2.58;;;9.80;97.80;;;;;;5050817;28;20079;-60
2022/01/03 03:17:39;;;;;;;29.75;4.30;;;9.80;97.80;;;;;;5030641;28;20596;-60
2022/01/03 03:20:14;;;;;;;29.13;4.40;;;9.80;97.90;;;;;;5045494;28;20132;-59
2022/01/03 03:22:41;;;;;;;31.52;5.30;;;9.80;97.70;;;;;;5050751;28;20076;-60
2022/01/03 03:25:12;;;;;;;24.40;4.25;;;9.80;97.90;;;;;;5049774;28;20080;-59
2022/01/03 03:27:43;;;;;;;20.58;5.20;;;9.70;97.60;;;;;;5050693;28;20053;-60
2022/01/03 03:30:26;;;;;;;20.65;3.08;;;9.80;97.80;;;;;;5050546;28;20080;-64
2022/01/03 03:32:54;;;;;;;21.45;4.70;;;9.80;97.90;;;;;;5050153;28;20044;-60
2022/01/03 03:35:21;;;;;;;18.52;3.40;;;9.70;97.80;;;;;;5049412;28;20044;-60
2022/01/03 03:37:48;;;;;;;23.52;3.65;;;9.80;97.90;;;;;;5049336;28;20281;-60
2022/01/03 03:40:16;;;;;;;17.33;3.13;;;9.80;97.80;;;;;;5050050;28;20047;-59
2022/01/03 03:42:43;;;;;;;26.58;3.92;;;9.80;98.00;;;;;;5050421;28;20045;-60
2022/01/03 03:45:10;;;;;;;23.63;3.28;;;9.80;97.80;;;;;;5051976;28;20040;-60
2022/01/03 03:47:37;;;;;;;20.70;3.67;;;9.80;97.80;;;;;;5054639;28;20048;-60
2022/01/03 03:50:04;;;;;;;21.10;5.18;;;9.70;97.80;;;;;;5051701;28;20077;-60
2022/01/03 03:52:32;;;;;;;27.80;3.38;;;9.70;97.80;;;;;;5050296;28;20462;-60
2022/01/03 03:54:59;;;;;;;21.52;5.35;;;9.80;97.70;;;;;;5050232;28;20291;-63
2022/01/03 03:57:26;;;;;;;24.45;4.88;;;9.90;97.60;;;;;;5048552;28;20095;-61
2022/01/03 03:59:53;;;;;;;17.83;3.72;;;9.90;97.60;;;;;;5049772;28;20071;-60
2022/01/03 04:02:19;;;;;;;24.52;3.08;;;9.90;97.60;;;;;;5036568;28;20045;-61
2022/01/03 04:04:46;;;;;;;23.92;4.68;;;9.80;97.50;;;;;;5029658;28;20136;-60
2022/01/03 04:07:14;;;;;;;26.40;4.13;;;9.80;97.60;;;;;;5048950;28;20171;-61
2022/01/03 04:09:40;;;;;;;19.92;3.47;;;9.80;97.30;;;;;;5049607;28;20056;-60
2022/01/03 04:12:07;;;;;;;18.67;2.88;;;9.80;97.40;;;;;;5049950;28;20087;-60
2022/01/03 04:14:34;;;;;;;20.17;3.20;;;9.80;97.30;;;;;;5049812;28;20049;-61
2022/01/03 04:17:01;;;;;;;13.45;3.70;;;9.80;97.40;;;;;;5049786;28;20564;-63
2022/01/03 04:19:28;;;;;;;29.83;6.05;;;9.80;97.20;;;;;;5049439;28;20049;-60
2022/01/03 04:21:54;;;;;;;20.23;3.05;;;9.80;97.20;;;;;;5050013;28;20530;-60
2022/01/03 04:24:21;;;;;;;23.67;3.92;;;9.80;97.50;;;;;;5049549;28;20080;-60
2022/01/03 04:26:49;;;;;;;22.60;3.33;;;9.80;97.40;;;;;;5049224;28;20045;-60
2022/01/03 04:29:16;;;;;;;29.70;4.07;;;9.80;97.30;;;;;;5050038;28;20461;-60
2022/01/03 04:31:43;;;;;;;19.35;3.42;;;9.80;97.30;;;;;;5048975;28;20095;-60
2022/01/03 04:34:10;;;;;;;15.60;2.88;;;9.70;97.30;;;;;;5049632;28;20084;-61
2022/01/03 04:36:37;;;;;;;17.08;3.35;;;9.70;97.30;;;;;;5048906;28;20570;-60
2022/01/03 04:39:04;;;;;;;16.20;2.88;;;9.70;97.10;;;;;;5048976;28;20052;-59
2022/01/03 04:41:31;;;;;;;18.42;2.92;;;9.70;96.80;;;;;;5049229;28;20048;-60
2022/01/03 04:43:58;;;;;;;22.63;2.97;;;9.70;96.80;;;;;;5049124;28;20052;-63
2022/01/03 04:46:25;;;;;;;15.05;3.15;;;9.70;96.90;;;;;;5048992;28;20053;-60
2022/01/03 04:48:51;;;;;;;20.15;2.75;;;9.80;96.90;;;;;;5048775;28;20071;-60
2022/01/03 04:51:18;;;;;;;29.15;3.88;;;9.70;97.00;;;;;;5049166;28;20126;-60
2022/01/03 04:53:45;;;;;;;20.67;2.83;;;9.80;97.00;;;;;;5048355;28;20107;-60
2022/01/03 04:56:13;;;;;;;22.48;3.22;;;9.80;96.90;;;;;;5049087;28;20463;-60
2022/01/03 04:58:40;;;;;;;19.65;3.17;;;9.70;97.00;;;;;;5048489;28;20068;-60
2022/01/03 05:01:07;;;;;;;15.57;2.92;;;9.80;96.80;;;;;;5047347;28;20661;-60
2022/01/03 05:03:34;;;;;;;24.23;3.35;;;9.80;96.90;;;;;;5046787;28;20045;-60
2022/01/03 05:06:01;;;;;;;20.80;3.88;;;9.80;96.80;;;;;;5048636;28;20053;-60
2022/01/03 05:08:29;;;;;;;20.10;3.17;;;9.80;96.60;;;;;;5048537;28;20047;-60
2022/01/03 05:11:00;;;;;;;18.60;2.70;;;9.80;96.70;;;;;;5048834;28;20102;-60
2022/01/03 05:13:28;;;;;;;12.80;2.28;;;9.80;96.70;;;;;;5048950;28;20103;-60
2022/01/03 05:15:56;;;;;;;21.52;3.10;;;9.70;96.80;;;;;;5048998;28;20732;-58
2022/01/03 05:18:23;;;;;;;24.08;2.78;;;9.70;96.80;;;;;;5048607;28;20048;-60
2022/01/03 05:20:50;;;;;;;28.50;3.53;;;9.70;97.00;;;;;;5049285;28;20095;-60
2022/01/03 05:23:17;;;;;;;19.10;4.20;;;9.70;96.80;;;;;;5048984;28;20511;-60
2022/01/03 05:25:44;;;;;;;16.83;4.00;;;9.70;97.00;;;;;;5046754;28;20049;-60
2022/01/03 05:28:11;;;;;;;11.63;3.15;;;9.70;97.00;;;;;;5048525;28;20307;-60
2022/01/03 05:30:37;;;;;;;15.80;4.25;;;9.70;96.70;;;;;;5048098;28;20080;-61
2022/01/03 05:33:04;;;;;;;31.30;3.95;;;9.70;96.30;;;;;;5048042;28;20052;-60
2022/01/03 05:35:31;;;;;;;24.85;5.50;;;9.80;96.40;;;;;;5048331;28;20076;-61
2022/01/03 05:37:58;;;;;;;26.15;3.42;;;9.80;96.70;;;;;;5044855;28;20049;-60
2022/01/03 05:40:25;;;;;;;13.73;2.92;;;9.80;96.50;;;;;;5048113;28;20068;-60
2022/01/03 05:42:52;;;;;;;17.02;3.67;;;9.90;96.20;;;;;;5048244;28;20072;-60
2022/01/03 05:45:24;;;;;;;24.25;3.65;;;9.90;96.10;;;;;;5048729;28;20412;-61
2022/01/03 05:47:52;;;;;;;16.35;3.08;;;9.90;96.10;;;;;;5048004;28;20492;-59
2022/01/03 05:50:18;;;;;;;16.80;3.22;;;9.90;96.30;;;;;;5048418;28;20324;-60
2022/01/03 05:52:45;;;;;;;19.50;3.13;;;10.00;96.30;;;;;;5048325;28;20095;-60
2022/01/03 05:55:12;;;;;;;15.85;2.63;;;10.00;96.30;;;;;;5047494;28;20092;-60
2022/01/03 05:57:39;;;;;;;17.92;3.10;;;10.00;96.30;;;;;;5046408;28;20103;-60
2022/01/03 06:00:08;;;;;;;37.95;5.10;;;10.00;96.20;;;;;;5047161;28;20083;-59
2022/01/03 06:02:39;;;;;;;27.10;5.13;;;10.00;96.20;;;;;;5047530;28;20053;-60
2022/01/03 06:05:07;;;;;;;25.00;3.33;;;10.00;96.40;;;;;;5047741;28;20036;-61
2022/01/03 06:07:34;;;;;;;18.02;2.67;;;10.00;96.60;;;;;;5047174;28;20077;-60
2022/01/03 06:10:03;;;;;;;19.23;3.38;;;10.00;96.60;;;;;;5047324;28;20041;-60
2022/01/03 06:12:30;;;;;;;22.23;4.15;;;10.00;96.50;;;;;;5047689;28;20057;-60
2022/01/03 06:14:56;;;;;;;27.90;5.15;;;10.00;96.70;;;;;;5047445;28;20045;-60
2022/01/03 06:17:23;;;;;;;28.73;5.10;;;10.00;96.80;;;;;;5047570;28;20099;-61
2022/01/03 06:19:50;;;;;;;15.13;2.90;;;10.00;96.80;;;;;;5046489;28;20072;-60
2022/01/03 06:22:17;;;;;;;31.55;4.10;;;10.00;97.00;;;;;;5048523;28;20122;-61
2022/01/03 06:24:44;;;;;;;23.40;6.45;;;10.00;96.90;;;;;;5051718;28;20049;-60
2022/01/03 06:27:11;;;;;;;21.67;4.28;;;10.00;96.90;;;;;;5050162;28;20119;-61
2022/01/03 06:29:37;;;;;;;24.23;3.95;;;10.00;97.00;;;;;;5048016;28;20063;-60
2022/01/03 06:32:04;;;;;;;26.08;3.55;;;10.00;97.00;;;;;;5047473;28;20045;-60
2022/01/03 06:34:31;;;;;;;30.10;4.75;;;10.00;97.10;;;;;;5047463;28;20059;-60
2022/01/03 06:36:59;;;;;;;22.23;4.00;;;9.90;97.10;;;;;;5046868;28;20059;-61
2022/01/03 06:39:25;;;;;;;17.08;5.15;;;9.90;97.20;;;;;;5047556;28;20049;-60
2022/01/03 06:41:52;;;;;;;30.38;5.22;;;9.90;97.30;;;;;;5047078;28;20496;-67
2022/01/03 06:44:19;;;;;;;24.58;3.70;;;9.90;97.30;;;;;;5047928;28;20053;-61
2022/01/03 06:46:47;;;;;;;24.65;4.65;;;9.90;97.40;;;;;;5047077;28;20049;-61
2022/01/03 06:49:15;;;;;;;27.48;5.50;;;9.90;97.40;;;;;;5047474;28;20098;-60
2022/01/03 06:51:42;;;;;;;28.42;4.35;;;9.90;97.50;;;;;;5046725;28;20037;-60
2022/01/03 06:54:12;;;;;;;25.88;4.43;;;9.90;97.60;;;;;;5047443;28;20127;-60
2022/01/03 06:56:40;;;;;;;30.50;5.20;;;9.90;97.70;;;;;;5045752;28;20076;-61
2022/01/03 06:59:07;;;;;;;28.50;4.53;;;9.90;97.70;;;;;;5047763;28;20065;-60
2022/01/03 07:01:34;;;;;;;25.65;4.25;;;9.90;97.70;;;;;;5045313;28;20170;-59
2022/01/03 07:04:01;;;;;;;34.67;4.65;;;9.90;97.70;;;;;;5046939;28;20049;-60
2022/01/03 07:06:28;;;;;;;24.95;4.53;;;9.90;97.60;;;;;;5047028;28;20044;-60
2022/01/03 07:08:54;;;;;;;31.83;4.60;;;10.00;97.60;;;;;;5046843;28;20053;-60
2022/01/03 07:11:21;;;;;;;34.58;7.07;;;10.00;97.60;;;;;;5047610;28;20122;-61
2022/01/03 07:13:52;;;;;;;29.40;4.32;;;10.00;97.60;;;;;;5047427;28;20110;-61
2022/01/03 07:19:06;;;;;;;31.77;5.35;;;10.00;97.60;;;;;;5047180;28;20110;-60
2022/01/03 07:21:33;;;;;;;20.98;4.22;;;10.00;97.70;;;;;;5047021;28;20041;-60
2022/01/03 07:24:00;;;;;;;25.38;3.92;;;10.00;97.80;;;;;;5046824;28;20102;-61
2022/01/03 07:26:27;;;;;;;29.98;5.60;;;9.90;98.00;;;;;;5046782;28;20076;-61
2022/01/03 07:28:54;;;;;;;36.50;4.47;;;9.90;98.00;;;;;;5046940;28;20049;-61
2022/01/03 07:31:21;;;;;;;28.90;4.65;;;9.90;98.20;;;;;;5046500;28;20084;-60
2022/01/03 07:33:48;;;;;;;36.47;5.50;;;9.90;98.20;;;;;;5046193;28;20115;-60
2022/01/03 07:36:15;;;;;;;29.80;4.93;;;9.90;98.50;;;;;;5027042;28;20073;-60
2022/01/03 07:38:46;;;;;;;27.65;5.18;;;9.90;98.40;;;;;;5040730;28;20928;-61
2022/01/03 07:41:15;;;;;;;28.33;4.90;;;9.90;98.60;;;;;;5045841;28;20083;-61
2022/01/03 07:43:46;;;;;;;27.92;5.60;;;9.90;98.70;;;;;;5046577;28;20277;-60
2022/01/03 07:46:12;;;;;;;27.35;5.30;;;9.90;98.60;;;;;;5044398;28;20045;-60
2022/01/03 07:48:41;;;;;;;45.90;7.03;;;9.80;98.80;;;;;;5046885;28;20089;-61
2022/01/03 07:51:08;;;;;;;42.25;5.00;;;9.80;98.80;;;;;;5050817;28;20044;-61
2022/01/03 07:53:35;;;;;;;42.38;6.35;;;9.80;99.10;;;;;;5048042;28;20056;-65
2022/01/03 07:56:04;;;;;;;45.38;6.70;;;9.80;98.90;;;;;;5048668;28;20045;-60
2022/01/03 07:58:32;;;;;;;29.17;5.53;;;9.80;99.10;;;;;;5048331;28;20055;-61
2022/01/03 08:00:58;;;;;;;24.20;5.82;;;9.80;99.00;;;;;;5049991;28;20041;-60
2022/01/03 08:03:26;;;;;;;50.75;7.97;;;9.80;99.20;;;;;;5049947;28;20051;-60
2022/01/03 08:06:05;;;;;;;36.35;7.30;;;9.80;99.10;;;;;;5040502;28;20311;-60
2022/01/03 08:08:32;;;;;;;45.70;6.30;;;9.80;99.20;;;;;;5049498;28;20045;-60
2022/01/03 08:10:58;;;;;;;31.83;6.35;;;9.80;99.20;;;;;;5049695;28;20083;-59
2022/01/03 08:13:25;;;;;;;38.58;6.72;;;9.80;99.10;;;;;;5050170;28;20110;-60
2022/01/03 08:15:52;;;;;;;32.22;6.57;;;9.80;99.10;;;;;;5050441;28;20080;-60
2022/01/03 08:18:19;;;;;;;35.08;7.72;;;9.90;99.10;;;;;;5050357;28;20237;-60
2022/01/03 08:20:45;;;;;;;33.22;4.53;;;9.80;99.00;;;;;;5049767;28;20072;-60
2022/01/03 08:23:12;;;;;;;37.90;6.38;;;9.90;99.00;;;;;;5048575;28;20052;-60
2022/01/03 08:25:39;;;;;;;35.63;5.50;;;9.90;99.00;;;;;;5049727;28;20061;-60
2022/01/03 08:28:07;;;;;;;28.65;5.70;;;9.90;99.00;;;;;;5049057;28;20080;-60
2022/01/03 08:30:34;;;;;;;33.55;6.60;;;9.90;98.80;;;;;;5049168;28;20087;-60
2022/01/03 08:33:01;;;;;;;28.70;5.10;;;10.00;98.80;;;;;;5049565;28;20045;-60
2022/01/03 08:35:28;;;;;;;33.70;6.85;;;10.00;98.70;;;;;;4697084;28;9999984;-60
2022/01/03 08:37:55;;;;;;;28.83;4.78;;;10.00;98.70;;;;;;5046249;28;20045;-60
2022/01/03 08:40:22;;;;;;;39.83;6.88;;;10.00;98.80;;;;;;5045713;28;20052;-60
2022/01/03 08:42:51;;;;;;;39.75;6.85;;;10.00;98.70;;;;;;5046149;28;20131;-60
2022/01/03 08:45:18;;;;;;;34.78;4.93;;;9.90;99.00;;;;;;5045787;28;20044;-60
2022/01/03 08:47:46;;;;;;;25.20;5.80;;;9.90;98.70;;;;;;5045355;28;20106;-60
2022/01/03 08:50:15;;;;;;;31.35;3.90;;;9.90;98.60;;;;;;5046344;28;20053;-60
2022/01/03 08:52:42;;;;;;;27.55;3.70;;;9.90;98.50;;;;;;5044024;28;20045;-60
2022/01/03 08:55:09;;;;;;;24.65;3.75;;;9.90;98.40;;;;;;5038380;28;20065;-60
2022/01/03 08:57:37;;;;;;;20.52;2.75;;;9.90;98.40;;;;;;5042921;28;20053;-60
2022/01/03 09:00:09;;;;;;;28.23;2.75;;;9.80;98.40;;;;;;5037853;28;20496;-61
2022/01/03 09:02:36;;;;;;;23.02;4.30;;;9.80;98.30;;;;;;5045274;28;20576;-59
2022/01/03 09:05:03;;;;;;;24.58;3.90;;;9.90;98.40;;;;;;5046410;28;20122;-60
2022/01/03 09:07:30;;;;;;;21.10;4.68;;;9.80;98.30;;;;;;5047397;28;20049;-60
2022/01/03 09:09:57;;;;;;;16.70;3.55;;;9.90;98.40;;;;;;5048753;28;20048;-59
2022/01/03 09:12:24;;;;;;;17.10;2.92;;;9.80;98.10;;;;;;5046075;28;20045;-60
2022/01/03 09:14:51;;;;;;;19.98;3.05;;;9.80;98.10;;;;;;5045884;28;20085;-59
2022/01/03 09:17:18;;;;;;;14.70;2.85;;;9.80;98.10;;;;;;5045511;28;20044;-59
2022/01/03 09:19:45;;;;;;;16.20;2.63;;;9.80;97.90;;;;;;5045328;28;20681;-59
2022/01/03 09:22:21;;;;;;;16.77;2.90;;;9.80;97.90;;;;;;5045234;28;20053;-60
2022/01/03 09:30:08;;;;;;;18.98;2.83;;;9.80;97.60;;;;;;5043787;28;20484;-59
2022/01/03 09:32:35;;;;;;;13.15;2.28;;;9.80;97.90;;;;;;5044936;28;20060;-60
2022/01/03 09:35:03;;;;;;;13.68;2.20;;;9.80;97.70;;;;;;5044814;28;20056;-58
2022/01/03 09:37:33;;;;;;;18.33;3.00;;;9.80;97.70;;;;;;5045195;28;20098;-60
2022/01/03 09:40:00;;;;;;;17.17;2.13;;;9.80;97.70;;;;;;5041105;28;20064;-60
2022/01/03 09:42:28;;;;;;;9.15;2.08;;;9.80;97.50;;;;;;5043863;28;20048;-59
2022/01/03 09:44:56;;;;;;;12.60;2.25;;;9.80;97.70;;;;;;5044279;28;20095;-60
2022/01/03 09:47:23;;;;;;;12.20;2.63;;;9.80;97.30;;;;;;5043813;28;20062;-60
2022/01/03 09:49:50;;;;;;;22.23;2.53;;;9.80;97.60;;;;;;5043413;28;20045;-61
2022/01/03 09:52:22;;;;;;;10.57;2.15;;;9.90;97.60;;;;;;5044330;28;20053;-61
2022/01/03 09:54:49;;;;;;;13.25;2.03;;;9.90;97.40;;;;;;5043424;28;20083;-60
2022/01/03 09:57:16;;;;;;;14.45;2.95;;;9.90;97.40;;;;;;5026294;28;20071;-61
2022/01/03 09:59:43;;;;;;;13.88;1.88;;;9.90;97.40;;;;;;5031732;28;20089;-61
2022/01/03 10:02:10;;;;;;;9.20;2.00;;;9.90;97.10;;;;;;5043969;28;20045;-61
2022/01/03 10:04:37;;;;;;;8.68;2.08;;;9.90;97.30;;;;;;5022737;28;20060;-61
2022/01/03 10:07:10;;;;;;;10.35;2.05;;;10.00;97.10;;;;;;5024583;28;20053;-59
2022/01/03 10:09:37;;;;;;;12.73;2.00;;;10.00;96.80;;;;;;5038756;28;20091;-61
2022/01/03 10:12:05;;;;;;;13.43;1.98;;;9.90;96.80;;;;;;5042721;28;20080;-60
2022/01/03 10:14:32;;;;;;;10.38;1.60;;;9.90;97.10;;;;;;5043443;28;20053;-60
2022/01/03 10:17:00;;;;;;;10.27;1.73;;;10.00;97.10;;;;;;5044245;28;20041;-59
2022/01/03 10:19:27;;;;;;;9.95;1.33;;;9.90;96.50;;;;;;5044008;28;20048;-59
2022/01/03 10:21:54;;;;;;;8.40;1.33;;;10.00;96.70;;;;;;5042898;28;20080;-56
2022/01/03 10:24:32;;;;;;;9.50;1.65;;;9.90;96.60;;;;;;5043892;28;20168;-60
2022/01/03 10:26:59;;;;;;;5.20;1.25;;;9.90;96.40;;;;;;5040953;28;20045;-58
2022/01/03 10:29:27;;;;;;;9.45;2.08;;;9.90;96.70;;;;;;5043483;28;20141;-58
2022/01/03 10:31:56;;;;;;;7.72;1.13;;;10.00;96.90;;;;;;5043503;28;20072;-59
2022/01/03 10:34:27;;;;;;;8.60;1.73;;;10.00;96.60;;;;;;5043609;28;20045;-56
2022/01/03 10:36:55;;;;;;;9.27;1.52;;;9.90;96.50;;;;;;5042392;28;20045;-58
2022/01/03 10:39:24;;;;;;;8.65;1.60;;;10.00;96.80;;;;;;5042556;28;20082;-61
2022/01/03 10:42:15;;;;;;;6.85;1.40;;;10.00;96.60;;;;;;5043695;28;20094;-57
2022/01/03 10:44:42;;;;;;;6.70;1.40;;;10.00;96.40;;;;;;5043848;28;20045;-57
2022/01/03 10:47:10;;;;;;;9.57;1.52;;;10.00;97.10;;;;;;5043757;28;20102;-57
2022/01/03 10:49:38;;;;;;;13.85;2.08;;;10.10;96.70;;;;;;5042440;28;20128;-57
2022/01/03 10:52:11;;;;;;;12.43;1.67;;;10.10;96.70;;;;;;5047016;28;20098;-58
2022/01/03 10:54:38;;;;;;;9.73;1.77;;;10.10;96.60;;;;;;5046680;28;20053;-58
2022/01/03 10:57:06;;;;;;;12.90;1.85;;;10.10;96.80;;;;;;5045918;28;20479;-55
2022/01/03 10:59:35;;;;;;;10.27;1.50;;;10.10;96.70;;;;;;5047503;28;20045;-58
2022/01/03 11:02:04;;;;;;;12.10;2.13;;;10.20;96.80;;;;;;5047729;28;20056;-57
2022/01/03 11:04:56;;;;;;;15.18;2.38;;;10.10;96.70;;;;;;5047350;28;20052;-59
2022/01/03 11:13:23;;;;;;;13.90;2.08;;;10.20;96.80;;;;;;5024964;28;20103;-58
2022/01/03 11:16:03;;;;;;;11.00;3.75;;;10.30;96.80;;;;;;5042692;28;20083;-57
2022/01/03 11:18:34;;;;;;;11.52;1.80;;;10.20;96.70;;;;;;5047359;28;20519;-58
2022/01/03 11:21:13;;;;;;;10.95;1.25;;;10.30;97.00;;;;;;5045995;28;20195;-59
2022/01/03 11:24:06;;;;;;;12.50;2.47;;;10.30;97.00;;;;;;5045664;28;20048;-58
2022/01/03 11:26:35;;;;;;;15.90;3.15;;;10.30;96.90;;;;;;5048306;28;20076;-59
2022/01/03 11:29:03;;;;;;;10.88;1.85;;;10.30;97.10;;;;;;5038276;28;20468;-58
2022/01/03 11:31:33;;;;;;;14.15;3.00;;;10.30;97.10;;;;;;5046074;28;20580;-58
2022/01/03 11:34:00;;;;;;;17.45;3.40;;;10.40;97.20;;;;;;5046495;28;20371;-59
2022/01/03 11:36:47;;;;;;;25.38;3.92;;;10.40;97.10;;;;;;5046816;28;20048;-59
2022/01/03 11:39:13;;;;;;;14.52;2.47;;;10.40;97.10;;;;;;5029975;28;20081;-58
2022/01/03 11:41:41;;;;;;;11.25;2.08;;;10.50;97.00;;;;;;5047462;28;20049;-58
2022/01/03 11:44:12;;;;;;;10.43;1.88;;;10.50;97.10;;;;;;5047285;28;20049;-59
2022/01/03 11:46:46;;;;;;;9.38;1.60;;;10.50;96.90;;;;;;5049303;28;20059;-57
2022/01/03 11:49:13;;;;;;;10.35;2.13;;;10.50;97.00;;;;;;5049088;28;20102;-59
2022/01/03 11:51:41;;;;;;;13.20;2.60;;;10.50;97.10;;;;;;5048637;28;20528;-59
2022/01/03 11:54:09;;;;;;;14.15;2.65;;;10.60;97.30;;;;;;5049370;28;20048;-59
2022/01/03 11:56:42;;;;;;;9.68;1.63;;;10.60;97.10;;;;;;5050219;28;20570;-59
2022/01/03 12:04:58;;;;;;;16.05;2.05;;;10.60;97.00;;;;;;5049380;28;20076;-59
2022/01/03 12:07:25;;;;;;;13.98;1.65;;;10.60;97.30;;;;;;5049259;28;20057;-58
2022/01/03 12:09:54;;;;;;;11.02;2.17;;;10.60;97.10;;;;;;5050245;28;20106;-59
2022/01/03 12:12:35;;;;;;;15.07;1.95;;;10.70;97.30;;;;;;5050077;28;20064;-60
2022/01/03 12:15:03;;;;;;;22.35;2.75;;;10.70;97.00;;;;;;5050163;28;20102;-57
2022/01/03 12:17:44;;;;;;;14.10;2.92;;;10.70;97.10;;;;;;5049634;28;20069;-58
2022/01/03 12:20:11;;;;;;;15.10;2.58;;;10.70;97.00;;;;;;5050028;28;20053;-59
2022/01/03 12:22:54;;;;;;;9.50;1.70;;;10.80;96.70;;;;;;5049736;28;20045;-59
2022/01/03 12:25:32;;;;;;;12.35;2.33;;;10.80;96.80;;;;;;5049834;28;20061;-58
2022/01/03 12:28:00;;;;;;;13.65;3.58;;;10.80;96.50;;;;;;5032457;28;20049;-58
2022/01/03 12:30:34;;;;;;;7.35;1.95;;;10.80;96.90;;;;;;5049673;28;20186;-57
2022/01/03 12:33:07;;;;;;;14.35;3.05;;;10.80;96.60;;;;;;5049410;28;20555;-59
2022/01/03 12:35:38;;;;;;;14.82;2.70;;;10.80;96.40;;;;;;5049489;28;20106;-59
2022/01/03 12:38:05;;;;;;;14.77;2.15;;;10.80;96.90;;;;;;5049182;28;20041;-59
2022/01/03 12:40:47;;;;;;;14.45;1.75;;;10.90;96.80;;;;;;5049740;28;20711;-58
2022/01/03 12:43:15;;;;;;;8.57;1.42;;;10.90;96.20;;;;;;5049372;28;20048;-59
2022/01/03 12:45:43;;;;;;;7.32;2.28;;;10.90;96.60;;;;;;5049511;28;20138;-58
2022/01/03 12:50:41;;;;;;;9.93;1.65;;;10.90;96.40;;;;;;4697417;28;10000183;-59
2022/01/03 12:53:32;;;;;;;13.50;1.90;;;10.90;96.00;;;;;;5046970;28;20118;-59
2022/01/03 12:56:02;;;;;;;8.80;2.03;;;10.90;96.50;;;;;;5047869;28;20496;-59
2022/01/03 12:58:29;;;;;;;14.35;1.98;;;10.90;96.40;;;;;;5047650;28;20040;-59
2022/01/03 13:00:59;;;;;;;10.55;1.75;;;11.00;96.30;;;;;;5044210;28;20446;-62
2022/01/03 13:03:46;;;;;;;12.82;2.55;;;11.00;96.50;;;;;;5044370;28;20079;-58
2022/01/03 13:06:31;;;;;;;10.55;2.50;;;11.00;96.30;;;;;;5044925;28;20679;-59
2022/01/03 13:08:58;;;;;;;11.43;1.80;;;11.00;96.60;;;;;;5044852;28;20234;-58
2022/01/03 13:11:49;;;;;;;16.25;2.00;;;11.10;96.70;;;;;;5045070;28;20044;-58
2022/01/03 13:14:20;;;;;;;10.20;1.50;;;11.00;96.00;;;;;;5043902;28;20112;-59
2022/01/03 13:16:52;;;;;;;16.70;5.10;;;11.00;96.50;;;;;;5043147;28;20139;-57
2022/01/03 13:19:20;;;;;;;14.05;2.22;;;11.00;96.70;;;;;;5043125;28;20045;-58